createdAt,value
2018-08-25T00:00:41.821Z,27.7
2018-08-25T00:01:32.358Z,27.8
2018-08-25T00:02:22.402Z,27.7
2018-08-25T00:03:12.273Z,27.8
2018-08-25T00:04:01.497Z,27.8
2018-08-25T00:04:52.721Z,27.8
2018-08-25T00:05:42.440Z,27.8
2018-08-25T00:06:32.253Z,27.8
2018-08-25T00:07:22.584Z,27.8
2018-08-25T00:08:12.362Z,27.7
2018-08-25T00:09:02.803Z,27.8
2018-08-25T00:09:52.741Z,27.7
2018-08-25T00:10:43.923Z,27.8
2018-08-25T00:11:33.108Z,27.7
2018-08-25T00:12:23.508Z,27.7
2018-08-25T00:31:18.847Z,27.7
2018-08-25T00:32:09.167Z,27.8
2018-08-25T00:32:59.241Z,27.8
2018-08-25T00:33:49.596Z,27.8
2018-08-25T00:34:39.358Z,27.8
2018-08-25T00:35:29.713Z,27.8
2018-08-25T00:36:19.740Z,27.8
2018-08-25T00:37:09.845Z,27.8
2018-08-25T00:37:59.927Z,27.8
2018-08-25T00:38:50.512Z,27.8
2018-08-25T00:39:40.323Z,27.8
2018-08-25T00:40:30.086Z,27.8
2018-08-25T00:41:20.704Z,27.8
2018-08-25T00:42:10.005Z,27.8
2018-08-25T00:42:59.463Z,27.8
2018-08-25T00:43:50.598Z,27.8
2018-08-25T00:44:40.155Z,27.8
2018-08-25T00:45:29.624Z,27.8
2018-08-25T00:46:21.036Z,27.8
2018-08-25T00:47:10.869Z,27.8
2018-08-25T00:48:01.156Z,27.8
2018-08-25T00:48:50.760Z,27.8
2018-08-25T00:49:40.576Z,27.8
2018-08-25T00:50:31.151Z,27.8
2018-08-25T00:51:21.203Z,27.8
2018-08-25T00:52:10.433Z,27.8
2018-08-25T00:53:00.490Z,27.8
2018-08-25T00:53:50.587Z,27.8
2018-08-25T00:54:40.356Z,27.8
2018-08-25T00:55:31.577Z,27.8
2018-08-25T00:56:21.076Z,27.8
2018-08-25T00:57:11.948Z,27.8
2018-08-25T00:58:00.577Z,27.8
2018-08-25T00:58:51.251Z,27.8
2018-08-25T00:59:41.039Z,27.8
2018-08-25T01:00:31.370Z,27.8
2018-08-25T01:01:21.727Z,27.8
2018-08-25T01:02:12.079Z,27.8
2018-08-25T01:03:00.980Z,27.8
2018-08-25T01:03:51.600Z,27.8
2018-08-25T01:04:41.668Z,27.8
2018-08-25T01:05:31.804Z,27.8
2018-08-25T01:06:21.236Z,27.8
2018-08-25T01:07:11.825Z,27.8
2018-08-25T01:08:02.591Z,27.8
2018-08-25T01:08:52.015Z,27.8
2018-08-25T01:09:42.073Z,27.8
2018-08-25T01:10:32.701Z,27.8
2018-08-25T01:11:22.195Z,27.8
2018-08-25T01:13:02.634Z,27.8
2018-08-25T01:14:42.508Z,27.8
2018-08-25T01:15:32.520Z,27.8
2018-08-25T01:16:22.859Z,27.8
2018-08-25T01:18:53.356Z,27.8
2018-08-25T01:19:42.680Z,27.8
2018-08-25T01:20:33.243Z,27.8
2018-08-25T01:21:22.431Z,27.8
2018-08-25T01:22:13.309Z,27.8
2018-08-25T01:23:03.646Z,27.8
2018-08-25T01:23:53.440Z,27.8
2018-08-25T01:25:33.606Z,27.8
2018-08-25T01:26:23.666Z,27.8
2018-08-25T01:27:13.146Z,27.8
2018-08-25T01:28:03.213Z,27.8
2018-08-25T01:28:53.279Z,27.8
2018-08-25T01:29:43.066Z,27.8
2018-08-25T01:30:34.009Z,27.8
2018-08-25T01:31:23.763Z,27.8
2018-08-25T01:33:04.358Z,27.8
2018-08-25T01:33:54.208Z,27.8
2018-08-25T01:34:44.022Z,27.8
2018-08-25T01:35:34.391Z,27.8
2018-08-25T01:36:24.418Z,27.8
2018-08-25T01:37:14.224Z,27.8
2018-08-25T01:38:05.123Z,27.8
2018-08-25T01:38:54.587Z,27.8
2018-08-25T01:39:44.725Z,27.8
2018-08-25T01:40:34.730Z,27.8
2018-08-25T01:41:24.822Z,27.8
2018-08-25T01:42:14.069Z,27.8
2018-08-25T01:43:05.261Z,27.8
2018-08-25T01:43:55.263Z,27.8
2018-08-25T01:44:45.641Z,27.8
2018-08-25T01:45:34.565Z,27.8
2018-08-25T01:46:25.226Z,27.8
2018-08-25T01:47:15.572Z,27.8
2018-08-25T01:48:05.047Z,27.8
2018-08-25T01:49:44.922Z,27.8
2018-08-25T01:50:35.290Z,27.8
2018-08-25T01:52:15.963Z,27.8
2018-08-25T01:53:05.707Z,27.8
2018-08-25T01:53:55.773Z,27.8
2018-08-25T01:54:45.922Z,27.8
2018-08-25T01:57:15.775Z,27.8
2018-08-25T01:58:56.217Z,27.8
2018-08-25T02:04:46.084Z,27.8
2018-08-25T02:05:36.681Z,27.8
2018-08-25T02:46:29.541Z,27.9
2018-08-25T03:10:42.037Z,27.9
2018-08-25T03:18:12.307Z,27.9
2018-08-25T03:19:01.848Z,27.9
2018-08-25T03:19:52.203Z,27.9
2018-08-25T03:21:31.777Z,27.9
2018-08-25T03:29:02.682Z,27.9
2018-08-25T03:31:32.880Z,27.9
2018-08-25T03:33:13.731Z,27.9
2018-08-25T03:35:43.900Z,27.9
2018-08-25T03:38:14.150Z,27.9
2018-08-25T03:39:03.964Z,27.9
2018-08-25T03:39:54.007Z,27.9
2018-08-25T03:42:24.541Z,27.9
2018-08-25T03:44:53.836Z,27.9
2018-08-25T03:46:33.967Z,27.9
2018-08-25T03:47:24.423Z,27.9
2018-08-25T03:48:14.358Z,27.9
2018-08-25T03:49:03.620Z,27.9
2018-08-25T03:50:45.349Z,27.9
2018-08-25T03:51:34.346Z,27.9
2018-08-25T03:52:24.995Z,27.9
2018-08-25T03:53:15.094Z,27.9
2018-08-25T03:54:03.963Z,27.9
2018-08-25T03:54:55.480Z,27.9
2018-08-25T03:55:45.247Z,27.9
2018-08-25T03:56:35.070Z,27.9
2018-08-25T03:57:25.375Z,27.9
2018-08-25T03:58:14.637Z,27.9
2018-08-25T03:59:05.807Z,27.9
2018-08-25T03:59:54.993Z,27.9
2018-08-25T04:00:46.173Z,27.9
2018-08-25T04:01:37.066Z,27.9
2018-08-25T04:02:26.025Z,27.9
2018-08-25T04:03:15.562Z,27.9
2018-08-25T04:04:06.172Z,27.9
2018-08-25T04:04:55.949Z,27.9
2018-08-25T04:05:46.005Z,27.9
2018-08-25T04:06:36.309Z,27.9
2018-08-25T04:07:26.130Z,27.9
2018-08-25T04:08:16.213Z,27.9
2018-08-25T04:09:06.545Z,27.9
2018-08-25T04:09:55.438Z,27.9
2018-08-25T04:10:46.441Z,27.9
2018-08-25T04:11:36.736Z,27.9
2018-08-25T04:12:25.351Z,27.9
2018-08-25T04:13:16.583Z,27.9
2018-08-25T04:14:06.883Z,27.9
2018-08-25T04:14:57.731Z,27.9
2018-08-25T04:15:46.237Z,27.9
2018-08-25T04:16:35.966Z,27.9
2018-08-25T04:17:27.244Z,27.9
2018-08-25T04:18:17.003Z,27.9
2018-08-25T04:19:07.051Z,27.9
2018-08-25T04:19:57.144Z,27.9
2018-08-25T04:20:47.467Z,27.9
2018-08-25T04:21:36.971Z,27.9
2018-08-25T04:22:27.863Z,27.9
2018-08-25T04:23:17.111Z,27.9
2018-08-25T04:24:06.568Z,27.9
2018-08-25T04:24:57.500Z,27.9
2018-08-25T04:25:47.407Z,27.9
2018-08-25T04:26:37.655Z,27.9
2018-08-25T04:27:27.449Z,27.9
2018-08-25T04:28:17.769Z,27.9
2018-08-25T04:29:07.867Z,27.9
2018-08-25T04:29:57.884Z,27.9
2018-08-25T04:30:47.943Z,27.9
2018-08-25T04:31:37.213Z,27.9
2018-08-25T04:32:28.340Z,27.9
2018-08-25T04:33:18.637Z,27.9
2018-08-25T04:34:08.210Z,27.9
2018-08-25T04:34:58.578Z,27.9
2018-08-25T04:35:48.366Z,27.9
2018-08-25T04:36:38.676Z,27.9
2018-08-25T04:37:28.401Z,27.9
2018-08-25T04:38:18.283Z,27.9
2018-08-25T04:39:08.875Z,27.9
2018-08-25T04:39:58.901Z,27.9
2018-08-25T04:40:48.707Z,27.9
2018-08-25T04:41:38.488Z,27.9
2018-08-25T04:42:29.405Z,27.9
2018-08-25T05:00:27.455Z,27.9
2018-08-25T05:01:17.076Z,27.9
2018-08-25T05:02:07.275Z,27.9
2018-08-25T05:02:57.479Z,27.9
2018-08-25T05:03:47.601Z,27.9
2018-08-25T05:04:36.909Z,27.9
2018-08-25T05:05:27.588Z,27.9
2018-08-25T05:06:17.471Z,27.9
2018-08-25T05:07:07.779Z,27.9
2018-08-25T05:07:57.882Z,27.9
2018-08-25T05:09:37.527Z,27.8
2018-08-25T05:10:28.330Z,27.7
2018-08-25T05:11:18.099Z,27.6
2018-08-25T05:12:07.891Z,27.6
2018-08-25T05:12:58.252Z,27.6
2018-08-25T05:13:47.695Z,27.5
2018-08-25T05:14:38.092Z,27.5
2018-08-25T05:15:28.459Z,27.4
2018-08-25T05:16:18.783Z,27.4
2018-08-25T05:17:08.563Z,27.4
2018-08-25T05:17:58.621Z,27.4
2018-08-25T05:18:48.351Z,27.3
2018-08-25T05:19:38.786Z,27.3
2018-08-25T05:20:28.236Z,27.3
2018-08-25T05:21:18.636Z,27.3
2018-08-25T05:22:09.658Z,27.3
2018-08-25T05:22:59.300Z,27.3
2018-08-25T05:23:49.057Z,27.3
2018-08-25T05:24:39.160Z,27.3
2018-08-25T05:25:29.475Z,27.3
2018-08-25T05:26:19.517Z,27.3
2018-08-25T05:27:09.035Z,27.3
2018-08-25T05:27:59.672Z,27.3
2018-08-25T05:28:49.703Z,27.2
2018-08-25T05:29:39.806Z,27.3
2018-08-25T05:30:29.551Z,27.3
2018-08-25T05:31:19.060Z,27.2
2018-08-25T05:32:10.012Z,27.3
2018-08-25T05:32:59.477Z,27.3
2018-08-25T05:33:49.545Z,27.3
2018-08-25T05:34:39.673Z,27.3
2018-08-25T05:35:29.689Z,27.3
2018-08-25T05:36:20.325Z,27.3
2018-08-25T05:37:10.052Z,27.3
2018-08-25T05:37:59.895Z,27.3
2018-08-25T05:38:50.191Z,27.3
2018-08-25T05:39:40.021Z,27.3
2018-08-25T05:40:29.787Z,27.3
2018-08-25T05:41:20.451Z,27.2
2018-08-25T05:42:10.473Z,27.2
2018-08-25T05:43:00.811Z,27.2
2018-08-25T05:43:50.886Z,27.2
2018-08-25T05:44:39.910Z,27.2
2018-08-25T05:45:30.494Z,27.2
2018-08-25T05:46:20.256Z,27.2
2018-08-25T05:47:11.129Z,27.2
2018-08-25T05:48:00.370Z,27.2
2018-08-25T05:48:50.726Z,27.2
2018-08-25T05:49:40.232Z,29.6
2018-08-25T05:50:31.116Z,34.6
2018-08-25T05:51:21.471Z,34.9
2018-08-25T05:52:11.834Z,37.3
2018-08-25T05:53:01.859Z,37.6
2018-08-25T05:53:51.394Z,36.4
2018-08-25T05:54:41.718Z,34.6
2018-08-25T05:55:31.772Z,33.4
2018-08-25T05:56:21.290Z,32.8
2018-08-25T05:57:11.641Z,32.3
2018-08-25T05:58:02.331Z,32.1
2018-08-25T05:58:52.104Z,31.8
2018-08-25T05:59:42.145Z,31.6
2018-08-25T06:00:31.909Z,31.5
2018-08-25T06:01:21.668Z,31.4
2018-08-25T06:02:11.799Z,31.3
2018-08-25T06:03:02.378Z,31.2
2018-08-25T06:03:52.120Z,31.1
2018-08-25T06:04:41.903Z,31
2018-08-25T06:05:32.283Z,30.9
2018-08-25T06:06:22.344Z,30.8
2018-08-25T06:07:12.371Z,30.7
2018-08-25T06:08:02.257Z,30.6
2018-08-25T06:08:52.860Z,32
2018-08-25T06:09:42.573Z,35.8
2018-08-25T06:10:32.938Z,36.6
2018-08-25T06:11:22.732Z,38.1
2018-08-25T06:12:12.755Z,38.4
2018-08-25T06:13:02.821Z,38.4
2018-08-25T06:13:53.457Z,38.3
2018-08-25T06:14:43.493Z,38.3
2018-08-25T06:15:33.290Z,38.3
2018-08-25T06:16:22.773Z,38.4
2018-08-25T06:17:13.413Z,38.6
2018-08-25T06:18:03.226Z,38.7
2018-08-25T06:18:53.518Z,38.8
2018-08-25T06:19:43.876Z,38.8
2018-08-25T06:20:33.139Z,38.9
2018-08-25T06:21:23.223Z,38.9
2018-08-25T06:22:13.533Z,38.9
2018-08-25T06:23:03.373Z,38.9
2018-08-25T06:23:52.881Z,38.6
2018-08-25T06:24:43.459Z,38.3
2018-08-25T06:25:33.505Z,38.3
2018-08-25T06:26:23.287Z,38.3
2018-08-25T06:27:14.292Z,38.4
2018-08-25T06:28:04.265Z,38.4
2018-08-25T06:28:54.250Z,38.4
2018-08-25T06:29:45.052Z,38.4
2018-08-25T06:30:34.191Z,38.4
2018-08-25T06:31:24.307Z,38.4
2018-08-25T06:32:14.040Z,38.4
2018-08-25T06:33:04.646Z,38.5
2018-08-25T06:33:54.185Z,38.5
2018-08-25T06:34:44.480Z,38.6
2018-08-25T06:35:33.975Z,38.6
2018-08-25T06:36:24.952Z,38.6
2018-08-25T06:37:14.700Z,38.6
2018-08-25T06:38:04.904Z,38.6
2018-08-25T06:38:54.767Z,38.7
2018-08-25T06:39:45.135Z,38.7
2018-08-25T06:40:34.605Z,38.7
2018-08-25T06:41:24.405Z,38.8
2018-08-25T06:42:15.052Z,38.8
2018-08-25T06:43:04.555Z,38.8
2018-08-25T06:43:54.882Z,38.8
2018-08-25T06:44:44.967Z,38.8
2018-08-25T06:45:35.308Z,38.9
2018-08-25T06:46:25.689Z,38.9
2018-08-25T06:47:15.449Z,38.9
2018-08-25T06:48:06.057Z,38.9
2018-08-25T06:48:56.120Z,38.9
2018-08-25T06:49:44.776Z,38.9
2018-08-25T06:50:36.281Z,39
2018-08-25T06:51:26.041Z,39
2018-08-25T06:52:16.110Z,39
2018-08-25T06:53:06.001Z,39
2018-08-25T06:53:55.390Z,39
2018-08-25T06:54:45.156Z,39
2018-08-25T06:55:36.053Z,39.1
2018-08-25T06:56:26.148Z,39.1
2018-08-25T06:57:15.654Z,39.1
2018-08-25T06:58:06.149Z,39.1
2018-08-25T06:58:56.168Z,39.1
2018-08-25T06:59:45.926Z,39.1
2018-08-25T07:00:35.719Z,39.1
2018-08-25T07:01:26.355Z,39.2
2018-08-25T07:02:15.813Z,39.2
2018-08-25T07:03:06.177Z,39.2
2018-08-25T07:03:56.226Z,39.3
2018-08-25T07:04:46.738Z,39.4
2018-08-25T07:05:36.860Z,39.7
2018-08-25T07:06:27.208Z,40
2018-08-25T07:07:17.020Z,40.3
2018-08-25T07:08:07.039Z,40.5
2018-08-25T07:08:56.828Z,40.7
2018-08-25T07:09:47.740Z,40.9
2018-08-25T07:10:37.474Z,41
2018-08-25T07:11:26.733Z,41.1
2018-08-25T07:12:17.350Z,41.3
2018-08-25T07:13:07.652Z,41.4
2018-08-25T07:13:57.462Z,41.6
2018-08-25T07:14:48.100Z,41.8
2018-08-25T07:15:37.875Z,41.9
2018-08-25T07:16:27.065Z,42
2018-08-25T07:17:17.717Z,42.1
2018-08-25T07:18:07.789Z,42.3
2018-08-25T07:18:58.644Z,42.4
2018-08-25T07:19:47.911Z,42.5
2018-08-25T07:20:37.988Z,42.7
2018-08-25T07:21:27.841Z,42.8
2018-08-25T07:22:18.453Z,42.9
2018-08-25T07:23:08.486Z,43.1
2018-08-25T07:23:57.122Z,43.1
2018-08-25T07:24:48.354Z,43.3
2018-08-25T07:25:37.861Z,43.4
2018-08-25T07:26:28.268Z,43.6
2018-08-25T07:27:17.930Z,43.6
2018-08-25T07:28:08.840Z,43.8
2018-08-25T07:28:58.897Z,43.9
2018-08-25T07:29:48.177Z,44
2018-08-25T07:30:38.712Z,44.1
2018-08-25T07:31:28.779Z,44.1
2018-08-25T07:32:20.308Z,44.1
2018-08-25T07:33:08.987Z,43.9
2018-08-25T07:33:58.736Z,43.9
2018-08-25T07:34:49.644Z,43.9
2018-08-25T07:35:39.390Z,44
2018-08-25T07:36:29.176Z,44.1
2018-08-25T07:37:18.971Z,44.2
2018-08-25T07:38:09.891Z,44.3
2018-08-25T07:38:58.825Z,44.3
2018-08-25T07:39:49.461Z,44.4
2018-08-25T07:40:40.061Z,44.5
2018-08-25T07:41:29.926Z,44.7
2018-08-25T07:42:19.453Z,44.8
2018-08-25T07:43:10.025Z,44.9
2018-08-25T07:44:00.136Z,45
2018-08-25T07:44:49.923Z,45.1
2018-08-25T07:45:39.875Z,45.3
2018-08-25T07:46:29.420Z,45.4
2018-08-25T07:47:20.289Z,45.7
2018-08-25T07:48:10.428Z,45.8
2018-08-25T07:48:59.922Z,46
2018-08-25T07:49:50.206Z,46.2
2018-08-25T07:50:40.291Z,46.3
2018-08-25T07:51:30.601Z,46.5
2018-08-25T07:52:19.607Z,46.6
2018-08-25T07:53:10.825Z,46.8
2018-08-25T07:54:00.608Z,46.9
2018-08-25T07:54:50.349Z,47.1
2018-08-25T07:55:40.671Z,47.2
2018-08-25T07:56:30.961Z,47.3
2018-08-25T07:57:21.026Z,47.5
2018-08-25T07:58:10.399Z,47.6
2018-08-25T07:59:01.402Z,47.8
2018-08-25T07:59:50.969Z,47.9
2018-08-25T08:00:41.360Z,48.1
2018-08-25T08:01:31.100Z,48.3
2018-08-25T08:02:21.200Z,48.4
2018-08-25T08:03:11.273Z,48.6
2018-08-25T08:04:01.322Z,48.7
2018-08-25T08:04:51.961Z,48.8
2018-08-25T08:05:42.705Z,49
2018-08-25T08:06:30.967Z,49.1
2018-08-25T08:07:21.851Z,49.2
2018-08-25T08:08:11.775Z,49.2
2018-08-25T08:09:01.764Z,49.3
2018-08-25T08:09:52.071Z,49.4
2018-08-25T08:10:42.174Z,49.5
2018-08-25T08:11:31.451Z,49.7
2018-08-25T08:12:23.788Z,49.8
2018-08-25T08:13:12.088Z,49.9
2018-08-25T08:14:02.459Z,50
2018-08-25T08:14:51.903Z,50.2
2018-08-25T08:15:42.333Z,50.3
2018-08-25T08:16:32.570Z,50.4
2018-08-25T08:17:22.359Z,50.5
2018-08-25T08:18:11.907Z,50.6
2018-08-25T08:19:02.787Z,50.8
2018-08-25T08:19:52.856Z,50.9
2018-08-25T08:20:42.431Z,51
2018-08-25T08:21:32.157Z,51.1
2018-08-25T08:22:22.274Z,51.3
2018-08-25T08:23:12.516Z,51.4
2018-08-25T08:24:01.748Z,51.5
2018-08-25T08:24:53.243Z,51.6
2018-08-25T08:25:42.769Z,51.8
2018-08-25T08:26:33.024Z,51.9
2018-08-25T08:27:23.385Z,52
2018-08-25T08:28:13.843Z,52.1
2018-08-25T08:29:03.309Z,52.3
2018-08-25T08:29:53.603Z,51.9
2018-08-25T08:30:43.397Z,51.7
2018-08-25T08:31:33.454Z,51.8
2018-08-25T08:32:23.539Z,51.9
2018-08-25T08:33:14.526Z,52.1
2018-08-25T08:34:03.675Z,52.3
2018-08-25T08:34:53.451Z,52.4
2018-08-25T08:35:43.796Z,52.6
2018-08-25T08:36:33.868Z,52.8
2018-08-25T08:37:23.401Z,52.9
2018-08-25T08:38:14.320Z,53.1
2018-08-25T08:39:03.563Z,53.2
2018-08-25T08:39:53.694Z,53.3
2018-08-25T08:40:43.977Z,53.4
2018-08-25T08:41:33.775Z,53.6
2018-08-25T08:42:25.771Z,53.8
2018-08-25T08:43:14.174Z,53.9
2018-08-25T08:44:04.252Z,54
2018-08-25T08:44:54.300Z,54.1
2018-08-25T08:45:44.379Z,54.1
2018-08-25T08:46:34.367Z,54
2018-08-25T08:47:25.134Z,54
2018-08-25T08:48:14.783Z,54.1
2018-08-25T08:49:04.888Z,54.3
2018-08-25T08:49:55.278Z,54.4
2018-08-25T08:50:44.977Z,54.6
2018-08-25T08:51:35.608Z,54.7
2018-08-25T08:52:25.889Z,54.8
2018-08-25T08:53:14.867Z,54.9
2018-08-25T08:54:04.860Z,55.1
2018-08-25T08:54:55.591Z,55.2
2018-08-25T08:55:45.648Z,55.2
2018-08-25T08:56:36.016Z,55
2018-08-25T08:57:25.480Z,55.1
2018-08-25T08:58:16.131Z,55.2
2018-08-25T09:14:58.857Z,57.1
2018-08-25T09:15:48.661Z,57.2
2018-08-25T09:16:37.673Z,57.3
2018-08-25T09:17:29.106Z,57.3
2018-08-25T09:18:19.831Z,57.4
2018-08-25T09:19:09.760Z,57.5
2018-08-25T09:19:59.807Z,57.6
2018-08-25T09:20:49.310Z,57.7
2018-08-25T09:24:59.749Z,57.8
2018-08-25T09:25:50.278Z,57.9
2018-08-25T09:26:39.778Z,57.9
2018-08-25T09:27:31.297Z,58
2018-08-25T09:28:20.248Z,58.1
2018-08-25T09:29:09.816Z,58.1
2018-08-25T09:30:00.069Z,58.3
2018-08-25T09:30:50.687Z,58.3
2018-08-25T09:31:40.777Z,58.4
2018-08-25T09:32:30.257Z,58.4
2018-08-25T09:34:10.425Z,58.7
2018-08-25T09:35:00.757Z,58.8
2018-08-25T09:35:52.440Z,58.9
2018-08-25T09:36:43.805Z,58.8
2018-08-25T09:37:31.231Z,58.4
2018-08-25T09:38:20.432Z,58.3
2018-08-25T09:39:11.144Z,58.3
2018-08-25T09:40:00.863Z,58.3
2018-08-25T09:40:50.662Z,58.3
2018-08-25T09:41:41.567Z,58.4
2018-08-25T09:43:20.830Z,58.6
2018-08-25T09:44:11.167Z,58.7
2018-08-25T09:45:01.500Z,58.8
2018-08-25T09:45:52.364Z,58.9
2018-08-25T09:46:41.365Z,58.9
2018-08-25T09:47:31.136Z,59
2018-08-25T09:48:21.837Z,59.1
2018-08-25T09:49:12.130Z,59.3
2018-08-25T09:50:01.897Z,59.4
2018-08-25T09:50:52.517Z,59.4
2018-08-25T09:51:42.334Z,59.5
2018-08-25T09:52:32.409Z,59.6
2018-08-25T09:53:22.336Z,59.8
2018-08-25T09:54:12.506Z,59.8
2018-08-25T09:55:02.064Z,59.8
2018-08-25T09:55:52.097Z,59.9
2018-08-25T09:56:41.849Z,60.1
2018-08-25T09:57:32.752Z,60.2
2018-08-25T09:58:22.816Z,60.2
2018-08-25T09:59:13.194Z,60.2
2018-08-25T10:00:02.725Z,60.2
2018-08-25T10:00:53.037Z,60.3
2018-08-25T10:01:42.568Z,60.4
2018-08-25T10:02:33.161Z,60.4
2018-08-25T10:03:23.380Z,60.5
2018-08-25T10:04:12.766Z,60.6
2018-08-25T10:05:03.097Z,60.7
2018-08-25T10:05:53.486Z,60.8
2018-08-25T10:06:43.216Z,60.9
2018-08-25T10:07:33.041Z,61
2018-08-25T10:08:23.643Z,61.1
2018-08-25T10:09:13.418Z,61.1
2018-08-25T10:10:04.031Z,61.2
2018-08-25T10:10:54.680Z,61.3
2018-08-25T10:11:43.903Z,61.4
2018-08-25T10:12:33.994Z,61.5
2018-08-25T10:13:23.756Z,61.6
2018-08-25T10:14:14.103Z,61.8
2018-08-25T10:15:04.493Z,61.9
2018-08-25T10:15:53.955Z,61.9
2018-08-25T10:16:44.511Z,61.9
2018-08-25T10:17:33.604Z,62
2018-08-25T10:18:24.183Z,62.1
2018-08-25T10:19:14.196Z,62.2
2018-08-25T10:20:04.015Z,62.3
2018-08-25T10:20:54.313Z,62.3
2018-08-25T10:21:43.527Z,62.4
2018-08-25T10:22:34.963Z,62.3
2018-08-25T10:23:24.103Z,62.1
2018-08-25T10:24:14.357Z,61.7
2018-08-25T10:25:05.267Z,61.2
2018-08-25T10:25:55.245Z,60.6
2018-08-25T10:26:44.903Z,60
2018-08-25T10:27:34.567Z,59.4
2018-08-25T10:28:24.915Z,58.8
2018-08-25T10:29:15.309Z,58.4
2018-08-25T10:30:05.624Z,58.3
2018-08-25T10:31:44.632Z,57.6
2018-08-25T10:33:25.026Z,57.9
2018-08-25T10:34:15.108Z,58.1
2018-08-25T10:35:05.762Z,58.3
2018-08-25T10:36:46.134Z,58.8
2018-08-25T10:37:35.355Z,58.9
2018-08-25T10:38:26.264Z,59.1
2018-08-25T10:39:16.051Z,59.3
2018-08-25T10:40:06.152Z,59.5
2018-08-25T10:40:55.628Z,59.8
2018-08-25T10:41:47.673Z,59.9
2018-08-25T10:42:36.058Z,60
2018-08-25T10:43:26.113Z,60.1
2018-08-25T10:44:16.516Z,60.3
2018-08-25T10:45:06.283Z,60.3
2018-08-25T10:45:56.011Z,60.3
2018-08-25T10:46:45.232Z,60.3
2018-08-25T10:47:36.413Z,60.6
2018-08-25T10:48:26.496Z,60.8
2018-08-25T10:49:16.636Z,60.9
2018-08-25T10:50:06.654Z,61
2018-08-25T10:50:56.688Z,61.1
2018-08-25T10:51:46.753Z,61.1
2018-08-25T10:52:37.450Z,61.2
2018-08-25T10:53:26.630Z,61.3
2018-08-25T10:54:17.272Z,61.6
2018-08-25T10:55:06.734Z,61.7
2018-08-25T10:55:57.374Z,61.8
2018-08-25T10:56:47.169Z,62
2018-08-25T10:57:38.005Z,62.1
2018-08-25T10:58:27.281Z,62.3
2018-08-25T10:59:17.606Z,62.4
2018-08-25T11:00:08.167Z,62.6
2018-08-25T11:01:00.414Z,62.6
2018-08-25T11:01:47.296Z,62.8
2018-08-25T11:02:37.034Z,62.9
2018-08-25T11:03:28.241Z,62.9
2018-08-25T11:04:18.064Z,63.1
2018-08-25T11:05:08.080Z,63.2
2018-08-25T11:05:57.915Z,63.3
2018-08-25T11:06:48.216Z,63.3
2018-08-25T11:07:38.233Z,63.4
2018-08-25T11:08:27.802Z,63.4
2018-08-25T11:09:18.432Z,63.6
2018-08-25T11:10:07.924Z,63.6
2018-08-25T11:10:57.999Z,63.7
2018-08-25T11:11:48.414Z,63.8
2018-08-25T11:12:38.399Z,63.9
2018-08-25T11:13:28.744Z,64
2018-08-25T11:14:18.825Z,64.1
2018-08-25T11:15:08.315Z,64.2
2018-08-25T11:15:58.659Z,64.3
2018-08-25T11:16:48.727Z,64.4
2018-08-25T11:17:38.787Z,64.4
2018-08-25T11:18:29.146Z,64.5
2018-08-25T11:19:19.217Z,64.6
2018-08-25T11:20:09.329Z,64.6
2018-08-25T11:20:59.052Z,64.5
2018-08-25T11:21:48.534Z,64.4
2018-08-25T11:22:39.270Z,64.4
2018-08-25T11:23:28.992Z,64.4
2018-08-25T11:24:18.153Z,64.5
2018-08-25T11:25:09.424Z,64.6
2018-08-25T11:25:59.453Z,64.8
2018-08-25T11:26:49.811Z,64.9
2018-08-25T11:27:39.647Z,64.9
2018-08-25T11:28:29.071Z,65
2018-08-25T11:29:21.067Z,65.1
2018-08-25T11:30:09.497Z,65.1
2018-08-25T11:30:59.255Z,65.2
2018-08-25T11:31:50.425Z,65.3
2018-08-25T11:32:39.955Z,65.4
2018-08-25T11:33:29.760Z,65.4
2018-08-25T11:34:20.373Z,65.5
2018-08-25T11:35:10.410Z,65.6
2018-08-25T11:35:59.939Z,65.6
2018-08-25T11:36:50.242Z,65.8
2018-08-25T11:37:42.063Z,65.8
2018-08-25T11:38:30.412Z,65.8
2018-08-25T11:39:20.486Z,65.8
2018-08-25T11:40:10.570Z,65.9
2018-08-25T11:41:00.944Z,65.9
2018-08-25T11:41:50.730Z,65.9
2018-08-25T11:42:40.463Z,65.9
2018-08-25T11:43:31.088Z,65.9
2018-08-25T11:44:20.587Z,65.9
2018-08-25T11:45:10.686Z,66.1
2018-08-25T11:46:00.718Z,66.1
2018-08-25T11:46:51.368Z,66.2
2018-08-25T11:47:40.586Z,66.2
2018-08-25T11:48:31.206Z,66.2
2018-08-25T11:49:20.149Z,66.2
2018-08-25T11:50:11.042Z,66.3
2018-08-25T11:51:01.710Z,66.3
2018-08-25T11:51:51.741Z,66.3
2018-08-25T11:52:41.894Z,66.4
2018-08-25T11:53:31.329Z,66.4
2018-08-25T11:54:21.960Z,66.4
2018-08-25T11:55:12.043Z,66.4
2018-08-25T11:56:02.409Z,66.5
2018-08-25T11:56:51.858Z,66.5
2018-08-25T11:57:41.355Z,66.5
2018-08-25T11:58:32.014Z,66.5
2018-08-25T11:59:21.758Z,66.5
2018-08-25T12:00:12.461Z,66.6
2018-08-25T12:01:02.201Z,66.6
2018-08-25T12:01:51.943Z,66.8
2018-08-25T12:02:42.341Z,66.8
2018-08-25T12:03:31.958Z,66.8
2018-08-25T12:04:21.311Z,66.8
2018-08-25T12:05:12.829Z,66.9
2018-08-25T12:06:02.334Z,66.9
2018-08-25T12:06:53.229Z,66.9
2018-08-25T12:07:42.429Z,66.9
2018-08-25T12:08:33.072Z,66.9
2018-08-25T12:09:23.320Z,66.9
2018-08-25T12:10:13.174Z,66.8
2018-08-25T12:11:03.549Z,66.8
2018-08-25T12:11:53.378Z,66.8
2018-08-25T12:12:43.085Z,66.8
2018-08-25T12:13:32.874Z,66.8
2018-08-25T12:14:23.246Z,66.8
2018-08-25T12:15:13.564Z,66.7
2018-08-25T12:16:04.038Z,66.6
2018-08-25T12:16:53.716Z,66.6
2018-08-25T12:17:43.222Z,66.6
2018-08-25T12:18:33.574Z,66.6
2018-08-25T12:19:23.907Z,66.8
2018-08-25T12:20:13.676Z,66.8
2018-08-25T12:21:03.463Z,66.9
2018-08-25T12:21:53.544Z,66.9
2018-08-25T12:22:43.877Z,66.9
2018-08-25T12:23:33.979Z,66.9
2018-08-25T12:24:24.046Z,66.9
2018-08-25T12:25:14.185Z,66.9
2018-08-25T12:26:03.271Z,66.9
2018-08-25T12:26:54.272Z,66.9
2018-08-25T12:27:44.810Z,66.8
2018-08-25T12:28:34.704Z,66.8
2018-08-25T12:29:24.133Z,66.7
2018-08-25T12:30:14.829Z,66.7
2018-08-25T12:31:03.995Z,66.6
2018-08-25T12:31:54.914Z,66.6
2018-08-25T12:32:46.203Z,66.7
2018-08-25T12:33:36.060Z,66.7
2018-08-25T12:34:25.088Z,66.8
2018-08-25T12:35:14.891Z,66.9
2018-08-25T12:36:04.948Z,66.9
2018-08-25T12:36:55.031Z,66.9
2018-08-25T12:37:45.157Z,66.9
2018-08-25T12:38:35.137Z,66.9
2018-08-25T12:39:24.647Z,67
2018-08-25T12:40:15.272Z,67
2018-08-25T12:41:05.305Z,67
2018-08-25T12:41:56.040Z,67
2018-08-25T12:42:46.094Z,67
2018-08-25T12:43:36.545Z,67
2018-08-25T12:44:25.337Z,67
2018-08-25T12:45:16.591Z,67.1
2018-08-25T12:46:05.747Z,67.1
2018-08-25T12:46:55.538Z,67.1
2018-08-25T12:47:46.440Z,67.1
2018-08-25T12:48:35.925Z,67.1
2018-08-25T12:49:26.282Z,67.1
2018-08-25T12:50:15.516Z,67.1
2018-08-25T12:51:05.892Z,67.1
2018-08-25T12:51:56.233Z,67
2018-08-25T12:52:46.274Z,67.1
2018-08-25T12:53:36.623Z,67.1
2018-08-25T12:54:26.710Z,67.1
2018-08-25T12:55:16.624Z,67.1
2018-08-25T12:56:06.587Z,67.1
2018-08-25T12:56:56.883Z,67.1
2018-08-25T12:57:46.915Z,67.1
2018-08-25T12:58:37.288Z,67.1
2018-08-25T12:59:27.081Z,67.1
2018-08-25T13:00:16.861Z,67.1
2018-08-25T13:01:07.232Z,67.1
2018-08-25T13:01:57.119Z,67
2018-08-25T13:02:47.948Z,67
2018-08-25T13:03:37.738Z,67
2018-08-25T13:04:27.217Z,67
2018-08-25T13:05:16.976Z,67
2018-08-25T13:06:07.321Z,67
2018-08-25T13:06:57.691Z,67
2018-08-25T13:07:47.518Z,66.9
2018-08-25T13:08:36.959Z,67
2018-08-25T13:09:27.893Z,67
2018-08-25T13:10:17.670Z,67
2018-08-25T13:11:08.021Z,66.9
2018-08-25T13:11:58.074Z,66.9
2018-08-25T13:12:47.649Z,66.9
2018-08-25T13:13:38.478Z,66.9
2018-08-25T13:14:28.309Z,66.9
2018-08-25T13:15:18.329Z,66.9
2018-08-25T13:16:08.075Z,66.9
2018-08-25T13:16:58.449Z,66.9
2018-08-25T13:17:48.194Z,66.9
2018-08-25T13:18:37.747Z,66.9
2018-08-25T13:19:28.937Z,66.8
2018-08-25T13:20:18.706Z,66.8
2018-08-25T13:21:07.927Z,66.8
2018-08-25T13:21:59.058Z,66.7
2018-08-25T13:22:48.421Z,66.7
2018-08-25T13:23:38.708Z,66.6
2018-08-25T13:24:29.368Z,66.5
2018-08-25T13:25:18.846Z,66.4
2018-08-25T13:26:09.186Z,66.3
2018-08-25T13:26:59.898Z,66.1
2018-08-25T13:27:49.303Z,66
2018-08-25T13:28:39.683Z,66
2018-08-25T13:29:28.967Z,65.9
2018-08-25T13:30:19.503Z,65.9
2018-08-25T13:31:11.767Z,65.8
2018-08-25T13:31:59.688Z,65.6
2018-08-25T13:32:49.129Z,65.4
2018-08-25T13:33:39.489Z,65.3
2018-08-25T13:34:29.534Z,65.1
2018-08-25T13:35:19.897Z,65
2018-08-25T13:36:09.699Z,64.9
2018-08-25T13:36:59.750Z,64.8
2018-08-25T13:37:49.241Z,64.6
2018-08-25T13:38:40.231Z,64.5
2018-08-25T13:39:30.279Z,64.4
2018-08-25T13:40:19.748Z,64.3
2018-08-25T13:41:10.107Z,64.1
2018-08-25T13:41:59.867Z,63.9
2018-08-25T13:42:50.221Z,63.3
2018-08-25T13:43:40.360Z,62.1
2018-08-25T13:44:30.111Z,61.2
2018-08-25T13:45:21.152Z,60.4
2018-08-25T13:46:08.640Z,59.8
2018-08-25T13:47:00.562Z,59.3
2018-08-25T13:47:50.010Z,58.7
2018-08-25T13:48:39.901Z,58.2
2018-08-25T13:49:31.324Z,57.7
2018-08-25T13:50:21.066Z,57.2
2018-08-25T13:51:12.655Z,56.8
2018-08-25T13:52:01.234Z,56.3